PWSweather.com
Personal Weather Stations
Station Observations
ME1989
Sicily, Barcellona Pozzo Di GottoIT

SicilyBarcellona Pozzo Di GottoIT

Lat: 38.1487398, Lon: 15.2113962

Elevation: 131

Station Type: Peet Bros

Latest ConditionsUpdated 3:50:10 AM GMT+01:01 Thursday, Oct 23, 2014
Currently Today's Max Today's Min Today's Average
Temperature 56.2°F13.4°C 66.1°F18.9°C 56.2°F13.4°C 62.3°F16.8°C
Dew Point 48.8°F9.3°C 50.9°F10.5°C 42.4°F5.8°C 47.1°F8.4°C
Winds 20.3 mph NNW32.7 kmh NNW 26.1 mph NW42.0 kmh NW - 16.6 mph 26.7 kmh
Wind Gusts 35.1 mph56.5 kmh 35.9 mph57.8 kmh - -
Humidity 76% 76% 48% 58%
Pressure 29.79 in1008.8 mb 29.79 in1008.8 mb 29.70 in1005.8 mb -
Precipitation - 0.18 in4.6 mm - -
Hour Temp Dew Point Humidity Winds Wind Gusts Pressure Precip Precip Rate Daily Precip Total
03:50 AM 56.2°F13.4°C 48.8°F9.3°C 76% 20.3 mph NNW32.7 kmh NNW 35.1 mph56.5 kmh 29.79 in1008.8 mb 0.03 in0.8 mm 0.18 in/hr4.6 mm/hr 0.18 in4.6 mm
03:40 AM 59.2°F15.1°C 46.2°F7.9°C 62% 19.0 mph N30.6 kmh N 21.9 mph35.2 kmh 29.74 in1007.1 mb 0.00 in0.0 mm 0.00 in/hr0.0 mm/hr 0.15 in3.8 mm
03:30 AM 58.8°F14.9°C 49.0°F9.4°C 70% 13.9 mph N22.4 kmh N 17.3 mph27.8 kmh 29.74 in1007.1 mb 0.00 in0.0 mm 0.00 in/hr0.0 mm/hr 0.15 in3.8 mm
03:20 AM 58.0°F14.4°C 46.7°F8.2°C 66% 14.3 mph W23.0 kmh W 13.4 mph21.6 kmh 29.74 in1007.1 mb 0.09 in2.3 mm 0.54 in/hr13.7 mm/hr 0.15 in3.8 mm
03:10 AM 58.9°F14.9°C 46.3°F7.9°C 63% 23.9 mph N38.5 kmh N 35.9 mph57.8 kmh 29.75 in1007.5 mb 0.07 in1.8 mm 0.42 in/hr10.7 mm/hr 0.10 in2.5 mm
03:00 AM 59.6°F15.3°C 46.2°F7.9°C 61% 8.3 mph WNW13.4 kmh WNW 15.7 mph25.3 kmh 29.73 in1006.8 mb 0.03 in0.8 mm 0.04 in/hr1.0 mm/hr 0.03 in0.8 mm
02:50 AM 61.8°F16.6°C 42.4°F5.8°C 49% 17.9 mph WNW28.8 kmh WNW 27.4 mph44.1 kmh 29.74 in1007.1 mb 0.00 in0.0 mm 0.00 in/hr0.0 mm/hr 0.00 in0.0 mm
02:40 AM 64.0°F17.8°C 46.5°F8.1°C 53% 17.8 mph WNW28.6 kmh WNW 27.1 mph43.6 kmh 29.73 in1006.8 mb 0.00 in0.0 mm 0.00 in/hr0.0 mm/hr 0.00 in0.0 mm
02:30 AM 64.1°F17.8°C 47.1°F8.4°C 54% 13.0 mph NW20.9 kmh NW 21.4 mph34.4 kmh 29.72 in1006.4 mb 0.00 in0.0 mm 0.00 in/hr0.0 mm/hr 0.00 in0.0 mm
02:20 AM 64.1°F17.8°C 46.1°F7.8°C 52% 15.5 mph NW24.9 kmh NW 22.8 mph36.7 kmh 29.71 in1006.1 mb 0.00 in0.0 mm 0.00 in/hr0.0 mm/hr 0.00 in0.0 mm
02:10 AM 63.6°F17.6°C 46.7°F8.2°C 54% 14.6 mph NW23.5 kmh NW 22.1 mph35.6 kmh 29.72 in1006.4 mb 0.00 in0.0 mm 0.00 in/hr0.0 mm/hr 0.00 in0.0 mm
02:00 AM 62.4°F16.9°C 48.4°F9.1°C 60% 11.7 mph NW18.8 kmh NW 15.6 mph25.1 kmh 29.72 in1006.4 mb 0.00 in0.0 mm 0.00 in/hr0.0 mm/hr 0.00 in0.0 mm
01:50 AM 62.0°F16.7°C 48.4°F9.1°C 61% 17.1 mph NW27.5 kmh NW 25.0 mph40.2 kmh 29.73 in1006.8 mb 0.00 in0.0 mm 0.00 in/hr0.0 mm/hr 0.00 in0.0 mm
01:40 AM 62.3°F16.8°C 46.9°F8.3°C 57% 26.1 mph NW42.0 kmh NW 31.3 mph50.4 kmh 29.72 in1006.4 mb 0.00 in0.0 mm 0.00 in/hr0.0 mm/hr 0.00 in0.0 mm
01:30 AM 66.1°F18.9°C 45.8°F7.7°C 48% 20.4 mph W32.8 kmh W 32.4 mph52.1 kmh 29.70 in1005.8 mb 0.00 in0.0 mm 0.00 in/hr0.0 mm/hr 0.00 in0.0 mm
01:20 AM 64.8°F18.2°C 46.2°F7.9°C 51% 12.7 mph WSW20.4 kmh WSW 19.1 mph30.7 kmh 29.71 in1006.1 mb 0.00 in0.0 mm 0.00 in/hr0.0 mm/hr 0.00 in0.0 mm
01:10 AM 64.8°F18.2°C 46.3°F7.9°C 51% 14.5 mph W23.3 kmh W 23.1 mph37.2 kmh 29.72 in1006.4 mb 0.00 in0.0 mm 0.00 in/hr0.0 mm/hr 0.00 in0.0 mm
01:00 AM 64.1°F17.8°C 45.1°F7.3°C 50% 16.2 mph WSW26.1 kmh WSW 24.1 mph38.8 kmh 29.72 in1006.4 mb 0.00 in0.0 mm 0.00 in/hr0.0 mm/hr 0.00 in0.0 mm
12:50 AM 62.0°F16.7°C 50.1°F10.1°C 65% 7.6 mph NW12.2 kmh NW 11.9 mph19.2 kmh 29.72 in1006.4 mb 0.00 in0.0 mm 0.00 in/hr0.0 mm/hr 0.00 in0.0 mm
12:30 AM 63.0°F17.2°C 48.4°F9.1°C 59% 20.4 mph NW32.8 kmh NW 26.8 mph43.1 kmh 29.73 in1006.8 mb 0.00 in0.0 mm 0.00 in/hr0.0 mm/hr 0.00 in0.0 mm
12:10 AM 64.8°F18.2°C 48.2°F9.0°C 55% 22.0 mph NW35.4 kmh NW 29.0 mph46.7 kmh 29.72 in1006.4 mb 0.00 in0.0 mm 0.00 in/hr0.0 mm/hr 0.00 in0.0 mm
12:00 AM 65.7°F18.7°C 50.9°F10.5°C 59% 18.6 mph WNW29.9 kmh WNW 25.1 mph40.4 kmh 29.70 in1005.8 mb 0.00 in0.0 mm 0.00 in/hr0.0 mm/hr 0.00 in0.0 mm